Time;durP1;ratioP1;P1;durP2;ratioP2;P2;SDS_P1;SDS_P2;PMS_P1;PMS_P2;Temp;Humidity;BMP_temperature;BMP_pressure;BME280_temperature;BME280_humidity;BME280_pressure;Samples;Min_cycle;Max_cycle;Signal;HPM_P1;HPM_P2
2021/06/25 00:02:08;;;;;;;4.03;3.22;;;17.00;99.90;;;;;;5045808;28;20214;-78
2021/06/25 00:04:34;;;;;;;3.38;2.95;;;17.00;99.90;;;;;;5045593;28;20198;-77
2021/06/25 00:06:59;;;;;;;4.40;3.53;;;17.10;99.90;;;;;;5029165;28;20232;-76
2021/06/25 00:09:25;;;;;;;4.20;2.80;;;17.10;99.90;;;;;;5044683;28;20198;-78
2021/06/25 00:11:51;;;;;;;3.30;3.00;;;17.10;99.90;;;;;;5028840;28;20178;-77
2021/06/25 00:14:20;;;;;;;3.22;2.92;;;17.10;99.90;;;;;;5046304;28;20186;-78
2021/06/25 00:16:46;;;;;;;3.53;3.22;;;17.10;99.90;;;;;;5045410;28;20201;-81
2021/06/25 00:19:12;;;;;;;3.13;2.83;;;17.10;99.90;;;;;;5046153;28;20405;-78
2021/06/25 00:21:37;;;;;;;3.10;2.80;;;17.20;99.90;;;;;;5046459;28;20282;-78
2021/06/25 00:24:03;;;;;;;3.85;3.35;;;17.20;99.90;;;;;;5045944;28;20186;-77
2021/06/25 00:26:29;;;;;;;3.85;2.88;;;17.20;99.90;;;;;;5045516;28;20702;-78
2021/06/25 00:28:54;;;;;;;6.00;3.00;;;17.20;99.90;;;;;;5045811;28;20209;-80
2021/06/25 00:31:20;;;;;;;4.57;3.30;;;17.20;99.90;;;;;;5029200;28;20721;-78
2021/06/25 00:33:45;;;;;;;3.70;2.72;;;17.10;99.90;;;;;;5046274;28;20837;-78
2021/06/25 00:36:11;;;;;;;5.85;3.20;;;17.20;99.90;;;;;;5044662;28;20249;-79
2021/06/25 00:38:36;;;;;;;3.10;2.80;;;17.10;99.90;;;;;;5045560;28;20178;-79
2021/06/25 00:41:02;;;;;;;3.65;3.22;;;17.10;99.90;;;;;;5047006;28;20284;-77
2021/06/25 00:43:27;;;;;;;4.60;3.28;;;17.10;99.90;;;;;;5029146;28;20261;-80
2021/06/25 00:45:53;;;;;;;4.53;3.72;;;17.10;99.90;;;;;;5045683;28;20218;-80
2021/06/25 00:48:19;;;;;;;3.47;3.10;;;17.00;99.90;;;;;;5046276;28;20194;-76
2021/06/25 00:50:44;;;;;;;4.43;2.90;;;17.00;99.90;;;;;;5045966;28;20217;-77
2021/06/25 00:53:10;;;;;;;5.43;4.53;;;16.90;99.90;;;;;;5045416;28;20186;-79
2021/06/25 00:55:44;;;;;;;5.85;4.22;;;17.00;99.90;;;;;;5045221;28;20571;-77
2021/06/25 00:58:17;;;;;;;4.75;4.07;;;16.90;99.90;;;;;;5045088;28;20185;-78
2021/06/25 01:00:44;;;;;;;4.28;3.85;;;17.00;99.90;;;;;;5045014;28;20765;-77
2021/06/25 01:06:45;;;;;;;4.63;3.97;;;17.00;99.90;;;;;;5042684;28;20225;-79
2021/06/25 01:09:11;;;;;;;5.90;4.28;;;16.90;99.90;;;;;;5046277;28;20681;-78
2021/06/25 01:11:37;;;;;;;4.75;3.88;;;16.90;99.90;;;;;;5045541;28;20762;-78
2021/06/25 01:14:03;;;;;;;4.85;4.30;;;16.90;99.90;;;;;;5044481;28;20225;-79
2021/06/25 01:16:29;;;;;;;4.60;4.18;;;17.00;99.90;;;;;;5028499;28;20258;-79
2021/06/25 01:18:54;;;;;;;6.13;4.22;;;17.00;99.90;;;;;;5045698;28;20178;-78
2021/06/25 01:21:20;;;;;;;5.50;4.57;;;17.00;99.90;;;;;;5047093;28;20229;-79
2021/06/25 01:23:46;;;;;;;5.47;4.97;;;17.00;99.90;;;;;;5049478;28;20205;-79
2021/06/25 01:26:12;;;;;;;5.05;4.55;;;17.00;99.90;;;;;;5049365;28;20214;-79
2021/06/25 01:28:38;;;;;;;6.85;4.65;;;17.00;99.90;;;;;;5047068;28;20436;-77
2021/06/25 01:31:05;;;;;;;5.63;5.00;;;16.90;99.90;;;;;;5046510;28;20201;-77
2021/06/25 01:33:32;;;;;;;5.28;4.78;;;16.90;99.90;;;;;;5046297;28;20182;-79
2021/06/25 01:35:58;;;;;;;4.63;4.22;;;16.90;99.90;;;;;;5046203;28;20303;-79
2021/06/25 01:38:24;;;;;;;5.20;4.65;;;16.90;99.90;;;;;;5047943;28;20686;-78
2021/06/25 01:40:50;;;;;;;6.03;5.05;;;16.90;99.90;;;;;;5047608;28;20193;-78
2021/06/25 01:43:17;;;;;;;5.65;5.05;;;16.90;99.90;;;;;;5030179;28;20284;-78
2021/06/25 01:45:43;;;;;;;6.93;4.57;;;16.90;99.90;;;;;;5048751;28;20210;-77
2021/06/25 01:48:09;;;;;;;12.60;5.10;;;16.90;99.90;;;;;;5048964;28;20182;-77
2021/06/25 01:50:39;;;;;;;6.47;5.25;;;16.80;99.90;;;;;;5048262;28;20248;-78
2021/06/25 01:53:10;;;;;;;6.05;5.07;;;16.70;99.90;;;;;;5048814;28;20237;-79
2021/06/25 01:55:39;;;;;;;5.85;5.03;;;16.70;99.90;;;;;;5047520;22;20214;-77
2021/06/25 01:58:12;;;;;;;5.15;4.65;;;16.70;99.90;;;;;;5260637;22;20264;-76
2021/06/25 02:00:44;;;;;;;5.15;4.38;;;16.70;99.90;;;;;;5098670;22;20255;-79
2021/06/25 02:03:09;;;;;;;6.28;5.45;;;16.60;99.90;;;;;;5071975;28;20185;-76
2021/06/25 02:05:35;;;;;;;5.57;5.05;;;16.60;99.90;;;;;;5069080;28;20213;-77
2021/06/25 02:08:01;;;;;;;5.10;4.57;;;16.50;99.90;;;;;;5070033;28;21203;-78
2021/06/25 02:10:27;;;;;;;4.93;4.40;;;16.50;99.90;;;;;;5070883;28;20411;-79
2021/06/25 02:12:52;;;;;;;6.35;4.88;;;16.60;99.90;;;;;;5070762;28;20189;-79
2021/06/25 02:15:18;;;;;;;6.53;4.82;;;16.60;99.90;;;;;;5070378;28;20185;-78
2021/06/25 02:17:44;;;;;;;5.60;4.78;;;16.70;99.90;;;;;;5070735;28;20182;-78
2021/06/25 02:20:12;;;;;;;9.38;5.30;;;16.70;99.90;;;;;;5070283;28;20186;-79
2021/06/25 02:22:38;;;;;;;7.30;5.40;;;16.70;99.90;;;;;;5070234;28;20319;-77
2021/06/25 02:25:06;;;;;;;6.30;5.07;;;16.70;99.90;;;;;;5070317;28;20675;-79
2021/06/25 02:27:32;;;;;;;6.47;5.10;;;16.80;99.90;;;;;;5069777;28;20188;-77
2021/06/25 02:29:57;;;;;;;5.43;4.93;;;16.80;99.90;;;;;;5070004;28;20184;-77
2021/06/25 02:32:23;;;;;;;5.45;4.95;;;16.70;99.90;;;;;;5069118;28;20193;-78
2021/06/25 02:34:48;;;;;;;5.90;5.15;;;16.70;99.90;;;;;;5051942;28;20653;-78
2021/06/25 02:37:14;;;;;;;5.30;4.80;;;16.70;99.90;;;;;;5069906;28;20224;-79
2021/06/25 02:39:40;;;;;;;6.13;5.00;;;16.60;99.90;;;;;;5069979;28;20889;-76
2021/06/25 02:42:06;;;;;;;6.80;4.80;;;16.60;99.90;;;;;;5069756;28;20215;-79
2021/06/25 02:44:31;;;;;;;6.53;5.57;;;16.60;99.90;;;;;;5069813;28;20181;-77
2021/06/25 02:46:57;;;;;;;5.38;4.50;;;16.50;99.90;;;;;;5051062;28;20259;-77
2021/06/25 02:49:23;;;;;;;7.20;4.90;;;16.50;99.90;;;;;;5051893;28;20181;-76
2021/06/25 02:51:48;;;;;;;6.63;5.25;;;16.50;99.90;;;;;;5069752;28;20196;-79
2021/06/25 02:54:14;;;;;;;6.30;4.63;;;16.50;99.90;;;;;;5070326;28;20177;-79
2021/06/25 02:56:40;;;;;;;6.25;4.97;;;16.50;99.90;;;;;;5050966;28;20209;-78
2021/06/25 02:59:05;;;;;;;5.95;5.10;;;16.50;99.90;;;;;;5069720;28;20201;-77
2021/06/25 03:01:31;;;;;;;7.18;4.85;;;16.40;99.90;;;;;;5067744;28;20564;-76
2021/06/25 03:03:57;;;;;;;5.65;4.78;;;16.40;99.90;;;;;;5051560;28;20186;-79
2021/06/25 03:06:22;;;;;;;5.70;5.20;;;16.40;99.90;;;;;;5051661;28;20264;-77
2021/06/25 03:08:48;;;;;;;7.18;5.38;;;16.30;99.90;;;;;;5052067;28;20686;-78
2021/06/25 03:11:14;;;;;;;6.00;4.55;;;16.30;99.90;;;;;;5070753;28;20193;-76
2021/06/25 03:13:40;;;;;;;5.75;4.43;;;16.30;99.90;;;;;;5070049;28;20185;-80
2021/06/25 03:16:05;;;;;;;6.95;5.47;;;16.30;99.90;;;;;;5069385;28;20202;-78
2021/06/25 03:18:31;;;;;;;5.75;4.90;;;16.30;99.90;;;;;;5069816;28;20630;-77
2021/06/25 03:20:57;;;;;;;6.90;4.97;;;16.40;99.90;;;;;;5051432;28;20286;-77
2021/06/25 03:23:23;;;;;;;6.43;4.80;;;16.40;99.90;;;;;;5070994;28;20184;-79
2021/06/25 03:25:48;;;;;;;6.65;4.60;;;16.30;99.90;;;;;;5069818;28;20205;-77
2021/06/25 03:28:14;;;;;;;5.45;4.95;;;16.30;99.90;;;;;;5053014;28;20254;-76
2021/06/25 03:30:40;;;;;;;5.63;4.88;;;16.30;99.90;;;;;;5052047;28;20201;-80
2021/06/25 03:33:06;;;;;;;4.75;4.03;;;16.30;99.90;;;;;;5070288;28;21254;-79
2021/06/25 03:35:32;;;;;;;6.35;4.95;;;16.30;99.90;;;;;;5070084;28;20212;-80
2021/06/25 03:37:57;;;;;;;5.30;4.65;;;16.40;99.90;;;;;;5070192;28;20177;-79
2021/06/25 03:40:24;;;;;;;4.95;4.43;;;16.30;99.90;;;;;;5070863;28;20599;-77
2021/06/25 03:42:50;;;;;;;5.95;4.90;;;16.30;99.90;;;;;;5069553;28;20187;-76
2021/06/25 03:45:15;;;;;;;7.28;4.40;;;16.30;99.90;;;;;;5069667;28;20276;-76
2021/06/25 03:47:42;;;;;;;6.55;4.93;;;16.30;99.90;;;;;;5069345;28;20230;-77
2021/06/25 03:50:10;;;;;;;5.93;4.38;;;16.40;99.90;;;;;;5068780;28;20702;-76
2021/06/25 03:52:36;;;;;;;8.02;4.72;;;16.30;99.90;;;;;;5069467;28;20181;-78
2021/06/25 03:55:02;;;;;;;5.45;4.88;;;16.40;99.90;;;;;;5069708;28;20235;-77
2021/06/25 03:57:27;;;;;;;5.13;4.47;;;16.40;99.90;;;;;;5070063;28;20638;-76
2021/06/25 03:59:53;;;;;;;4.97;4.25;;;16.40;99.90;;;;;;5070235;28;20213;-78
2021/06/25 04:02:18;;;;;;;5.35;4.85;;;16.40;99.90;;;;;;5070103;28;20264;-78
2021/06/25 04:04:44;;;;;;;4.30;3.90;;;16.40;99.90;;;;;;5069586;28;20182;-80
2021/06/25 04:07:10;;;;;;;5.32;4.75;;;16.40;99.90;;;;;;5069868;28;20217;-76
2021/06/25 04:09:37;;;;;;;5.22;4.15;;;16.40;99.90;;;;;;5070488;28;20178;-78
2021/06/25 04:12:03;;;;;;;8.77;5.50;;;16.40;99.90;;;;;;5070164;28;20198;-77
2021/06/25 04:14:29;;;;;;;5.32;4.47;;;16.40;99.90;;;;;;5069524;28;20185;-76
2021/06/25 04:16:55;;;;;;;4.88;4.22;;;16.50;99.90;;;;;;5068759;28;20224;-78
2021/06/25 04:19:21;;;;;;;5.18;4.50;;;16.50;99.90;;;;;;5069272;28;20178;-77
2021/06/25 04:21:46;;;;;;;5.25;4.47;;;16.50;99.90;;;;;;5050996;28;20707;-78
2021/06/25 04:24:12;;;;;;;6.97;4.22;;;16.50;99.90;;;;;;5051524;28;20188;-79
2021/06/25 04:26:39;;;;;;;5.00;3.90;;;16.60;99.90;;;;;;5051736;28;20212;-77
2021/06/25 04:29:09;;;;;;;6.68;4.50;;;16.60;99.90;;;;;;5069876;28;20240;-78
2021/06/25 04:31:35;;;;;;;4.82;4.32;;;16.70;99.90;;;;;;5051474;28;20182;-78
2021/06/25 04:34:01;;;;;;;6.53;4.45;;;16.70;99.90;;;;;;5068423;28;20242;-76
2021/06/25 04:36:27;;;;;;;5.53;4.20;;;16.70;99.90;;;;;;5050838;28;20245;-77
2021/06/25 04:38:52;;;;;;;7.20;4.90;;;16.90;99.90;;;;;;5068830;28;20204;-75
2021/06/25 04:41:18;;;;;;;4.40;4.00;;;17.00;99.90;;;;;;5069335;28;20196;-78
2021/06/25 04:43:44;;;;;;;7.45;4.18;;;17.20;99.90;;;;;;5051107;28;20276;-78
2021/06/25 04:46:10;;;;;;;4.43;4.03;;;17.10;99.90;;;;;;5050588;28;20201;-78
2021/06/25 04:48:36;;;;;;;4.90;4.32;;;17.30;99.90;;;;;;5067934;28;20185;-77
2021/06/25 04:51:02;;;;;;;3.95;3.55;;;17.40;99.90;;;;;;5049789;28;20181;-78
2021/06/25 04:53:28;;;;;;;3.85;3.33;;;17.60;99.90;;;;;;5049122;28;20185;-79
2021/06/25 04:55:54;;;;;;;4.85;4.35;;;17.70;99.90;;;;;;5052846;28;20210;-78
2021/06/25 04:58:26;;;;;;;4.55;4.03;;;17.90;99.90;;;;;;5072726;28;20173;-79
2021/06/25 05:00:52;;;;;;;6.35;4.05;;;17.90;99.90;;;;;;5074048;28;20197;-77
2021/06/25 05:03:17;;;;;;;4.93;4.00;;;17.60;99.90;;;;;;5072920;28;20260;-79
2021/06/25 05:05:43;;;;;;;4.95;4.43;;;17.60;99.90;;;;;;5072649;28;20201;-76
2021/06/25 05:08:09;;;;;;;4.97;3.55;;;17.60;99.90;;;;;;5073161;28;20192;-77
2021/06/25 05:10:35;;;;;;;4.35;3.78;;;17.50;99.90;;;;;;5055026;28;20288;-76
2021/06/25 05:13:01;;;;;;;5.03;3.40;;;17.50;99.90;;;;;;5072899;28;20208;-79
2021/06/25 05:15:27;;;;;;;4.55;3.97;;;17.60;99.90;;;;;;5073091;28;20257;-75
2021/06/25 05:17:53;;;;;;;4.93;4.05;;;17.60;99.90;;;;;;5072728;28;20681;-77
2021/06/25 05:20:19;;;;;;;4.38;3.97;;;17.70;99.90;;;;;;5054935;28;20520;-76
2021/06/25 05:22:45;;;;;;;4.32;3.45;;;17.90;99.90;;;;;;5072184;28;20268;-79
2021/06/25 05:25:11;;;;;;;5.03;3.80;;;17.90;99.90;;;;;;5071520;28;20224;-77
2021/06/25 05:27:37;;;;;;;4.28;3.45;;;18.00;99.90;;;;;;5071967;28;20235;-77
2021/06/25 05:30:05;;;;;;;3.95;3.55;;;18.00;99.90;;;;;;5055060;28;20546;-80
2021/06/25 05:32:30;;;;;;;5.90;4.18;;;18.10;99.90;;;;;;5070545;28;20189;-79
2021/06/25 05:34:56;;;;;;;4.85;4.03;;;18.10;99.90;;;;;;5054242;28;20185;-79
2021/06/25 05:37:22;;;;;;;10.50;4.10;;;18.40;99.90;;;;;;5054606;28;20209;-78
2021/06/25 05:39:47;;;;;;;4.85;4.05;;;18.50;99.90;;;;;;5072034;28;20280;-75
2021/06/25 05:42:13;;;;;;;4.60;3.83;;;18.60;99.90;;;;;;5071731;28;20185;-77
2021/06/25 05:44:38;;;;;;;4.45;4.05;;;18.50;99.90;;;;;;5053771;28;20178;-80
2021/06/25 05:47:05;;;;;;;4.45;3.72;;;18.50;99.90;;;;;;5072618;28;20201;-78
2021/06/25 05:49:31;;;;;;;7.88;4.30;;;18.50;99.90;;;;;;5070656;28;20177;-79
2021/06/25 05:51:56;;;;;;;5.25;3.97;;;18.50;99.90;;;;;;5052113;28;20192;-78
2021/06/25 05:54:22;;;;;;;4.22;3.83;;;18.40;99.90;;;;;;5066826;28;20188;-78
2021/06/25 05:56:47;;;;;;;5.30;3.60;;;18.30;99.90;;;;;;5049911;28;20668;-78
2021/06/25 05:59:13;;;;;;;4.32;3.90;;;18.40;99.90;;;;;;5068194;28;20176;-77
2021/06/25 06:01:39;;;;;;;5.57;4.28;;;18.60;99.90;;;;;;5068468;28;20205;-78
2021/06/25 06:04:04;;;;;;;5.35;3.80;;;18.30;99.90;;;;;;5070131;28;20560;-77
2021/06/25 06:06:30;;;;;;;4.65;4.03;;;18.30;99.90;;;;;;5069828;28;20213;-77
2021/06/25 06:08:55;;;;;;;4.03;3.63;;;18.20;99.90;;;;;;5070342;28;20209;-79
2021/06/25 06:11:21;;;;;;;4.22;3.58;;;18.10;99.90;;;;;;5071919;28;21249;-79
2021/06/25 06:13:47;;;;;;;5.15;3.90;;;18.10;99.90;;;;;;5070936;28;20255;-77
2021/06/25 06:16:14;;;;;;;4.22;3.83;;;18.10;99.90;;;;;;5070948;28;20255;-76
2021/06/25 06:18:45;;;;;;;4.32;3.80;;;18.10;99.90;;;;;;5070975;28;20182;-79
2021/06/25 06:21:13;;;;;;;4.15;3.75;;;18.10;99.90;;;;;;5071189;28;20265;-79
2021/06/25 06:32:03;;;;;;;5.15;4.40;;;17.90;99.90;;;;;;5069924;28;20192;-78
2021/06/25 06:34:38;;;;;;;4.05;3.67;;;17.90;99.90;;;;;;5069886;28;20181;-76
2021/06/25 06:37:05;;;;;;;4.65;3.72;;;17.70;99.90;;;;;;5070519;28;20238;-79
2021/06/25 06:39:30;;;;;;;3.53;3.22;;;17.90;99.90;;;;;;5070357;28;20193;-79
2021/06/25 06:41:56;;;;;;;4.20;3.75;;;18.10;99.90;;;;;;5053218;28;20754;-77
2021/06/25 06:44:22;;;;;;;4.70;4.05;;;18.20;99.90;;;;;;5051502;28;20189;-78
2021/06/25 06:46:48;;;;;;;4.65;3.78;;;18.40;99.90;;;;;;5052263;28;20225;-78
2021/06/25 06:49:14;;;;;;;5.13;3.90;;;18.40;99.90;;;;;;5052154;28;20185;-77
2021/06/25 06:51:39;;;;;;;4.35;3.72;;;18.40;99.90;;;;;;5070169;28;20182;-79
2021/06/25 06:54:05;;;;;;;4.35;3.95;;;18.60;99.90;;;;;;5069888;28;20548;-77
2021/06/25 06:56:32;;;;;;;5.50;4.22;;;18.80;99.90;;;;;;5068785;28;20205;-76
2021/06/25 06:59:00;;;;;;;4.13;3.47;;;18.70;99.90;;;;;;5068189;28;20185;-77
2021/06/25 07:01:27;;;;;;;4.18;3.65;;;18.90;99.90;;;;;;5069994;28;20201;-74
2021/06/25 07:03:52;;;;;;;5.38;3.80;;;19.10;99.90;;;;;;5069243;28;20177;-76
2021/06/25 07:06:18;;;;;;;6.10;3.90;;;19.40;99.90;;;;;;5068561;28;20288;-76
2021/06/25 07:08:44;;;;;;;4.97;3.70;;;19.60;99.90;;;;;;5050095;28;20542;-77
2021/06/25 07:11:10;;;;;;;5.85;3.83;;;19.50;99.90;;;;;;5069054;28;20673;-76
2021/06/25 07:13:36;;;;;;;4.70;3.65;;;19.70;99.90;;;;;;5068505;28;20276;-77
2021/06/25 07:16:02;;;;;;;3.90;3.13;;;19.70;99.90;;;;;;5067640;28;20292;-77
2021/06/25 07:18:27;;;;;;;2.88;2.47;;;19.80;99.90;;;;;;5047314;28;20217;-76
2021/06/25 07:20:53;;;;;;;3.72;3.42;;;19.70;99.90;;;;;;5048205;28;20185;-77
2021/06/25 07:23:19;;;;;;;3.95;2.90;;;19.80;99.90;;;;;;5068889;28;20185;-77
2021/06/25 07:25:45;;;;;;;3.60;2.80;;;19.80;99.90;;;;;;5068824;28;20206;-77
2021/06/25 07:28:11;;;;;;;3.60;3.30;;;19.90;99.90;;;;;;5049631;28;20177;-76
2021/06/25 07:30:37;;;;;;;4.18;3.65;;;19.90;99.90;;;;;;5050420;28;20193;-77
2021/06/25 07:33:03;;;;;;;4.35;3.55;;;19.90;99.90;;;;;;5068223;28;20189;-77
2021/06/25 07:35:29;;;;;;;4.35;2.80;;;19.90;99.90;;;;;;5068191;28;20197;-78
2021/06/25 07:37:55;;;;;;;4.10;2.75;;;19.80;99.90;;;;;;5070229;28;20205;-78
2021/06/25 07:40:21;;;;;;;3.72;3.30;;;19.80;99.90;;;;;;5070177;28;20182;-79
2021/06/25 07:42:47;;;;;;;3.38;3.08;;;19.70;99.90;;;;;;5071058;28;20671;-78
2021/06/25 07:45:13;;;;;;;3.33;3.03;;;19.70;99.90;;;;;;5052608;28;20226;-78
2021/06/25 07:47:40;;;;;;;3.30;2.97;;;19.70;99.90;;;;;;5070349;28;20185;-79
2021/06/25 07:50:17;;;;;;;3.30;2.88;;;19.80;99.90;;;;;;5053089;28;20196;-79
2021/06/25 07:52:43;;;;;;;5.03;3.10;;;19.90;99.90;;;;;;5052395;28;20231;-79
2021/06/25 07:55:12;;;;;;;3.58;3.25;;;19.80;99.90;;;;;;5051878;28;20228;-77
2021/06/25 07:57:39;;;;;;;4.32;3.28;;;19.80;99.90;;;;;;5070758;28;20306;-77
2021/06/25 08:00:07;;;;;;;3.38;3.08;;;19.70;99.90;;;;;;5070015;28;20216;-79
2021/06/25 08:02:32;;;;;;;4.60;2.92;;;19.80;99.90;;;;;;5069690;28;20272;-78
2021/06/25 08:04:58;;;;;;;3.58;3.28;;;19.90;99.90;;;;;;5069309;28;20217;-79
2021/06/25 08:07:23;;;;;;;3.85;2.90;;;20.00;99.90;;;;;;5051612;28;20233;-79
2021/06/25 08:09:49;;;;;;;5.72;3.15;;;19.80;99.90;;;;;;5070106;28;20193;-79
2021/06/25 08:12:15;;;;;;;3.88;2.97;;;20.00;99.90;;;;;;5069448;28;20189;-77
2021/06/25 08:14:41;;;;;;;3.88;3.33;;;20.10;99.90;;;;;;5070029;28;20225;-78
2021/06/25 08:17:08;;;;;;;3.45;3.10;;;20.10;99.90;;;;;;5051650;28;20260;-79
2021/06/25 08:19:34;;;;;;;3.63;3.15;;;20.00;99.90;;;;;;5069407;28;20264;-80
2021/06/25 08:22:00;;;;;;;3.78;2.85;;;19.90;99.90;;;;;;5069762;28;20646;-80
2021/06/25 08:24:26;;;;;;;3.40;3.10;;;20.00;99.90;;;;;;5070077;28;20177;-79
2021/06/25 08:26:52;;;;;;;3.15;2.78;;;20.30;99.90;;;;;;5069017;28;20205;-79
2021/06/25 08:29:18;;;;;;;3.88;3.33;;;20.10;99.90;;;;;;5068964;28;20189;-79
2021/06/25 08:31:44;;;;;;;5.25;3.50;;;20.40;99.90;;;;;;5050318;28;20200;-78
2021/06/25 08:34:11;;;;;;;3.60;3.22;;;20.50;99.90;;;;;;5068925;28;20177;-78
2021/06/25 08:36:38;;;;;;;4.85;3.30;;;20.60;99.90;;;;;;5067800;28;20224;-79
2021/06/25 08:39:05;;;;;;;4.20;3.40;;;20.90;99.90;;;;;;5049666;28;20185;-77
2021/06/25 08:41:33;;;;;;;4.03;3.35;;;21.00;99.90;;;;;;5050153;28;20256;-80
2021/06/25 08:43:59;;;;;;;5.07;4.03;;;21.00;99.90;;;;;;5051266;28;20274;-79
2021/06/25 08:46:24;;;;;;;4.50;3.78;;;20.80;99.90;;;;;;5050174;28;21051;-77
2021/06/25 08:48:53;;;;;;;5.57;3.22;;;20.60;99.90;;;;;;5069365;28;20185;-79
2021/06/25 08:51:19;;;;;;;6.75;3.85;;;20.50;99.90;;;;;;5067830;28;20177;-79
2021/06/25 08:53:44;;;;;;;3.80;3.28;;;20.90;99.90;;;;;;5049378;28;20773;-76
2021/06/25 08:56:10;;;;;;;4.07;3.55;;;21.00;99.90;;;;;;5047625;28;20278;-78
2021/06/25 08:58:36;;;;;;;3.85;3.08;;;21.10;99.90;;;;;;5067131;28;20221;-77
2021/06/25 09:01:02;;;;;;;4.13;3.03;;;21.20;99.90;;;;;;5067080;28;20197;-79
2021/06/25 09:03:29;;;;;;;4.18;3.25;;;21.70;99.90;;;;;;5050426;28;20181;-79
2021/06/25 09:06:13;;;;;;;5.15;3.33;;;22.10;99.90;;;;;;5067836;28;20277;-78
2021/06/25 09:08:40;;;;;;;3.97;3.58;;;22.40;99.90;;;;;;5066063;28;20837;-79
2021/06/25 09:11:22;;;;;;;3.97;3.58;;;22.30;99.90;;;;;;5063421;28;20195;-78
2021/06/25 09:13:54;;;;;;;4.03;3.30;;;22.50;99.90;;;;;;5062645;28;20186;-79
2021/06/25 09:16:26;;;;;;;4.10;3.70;;;22.20;99.90;;;;;;5060294;28;20712;-78
2021/06/25 09:19:14;;;;;;;5.07;4.13;;;22.40;99.90;;;;;;5044801;28;20534;-79
2021/06/25 09:21:42;;;;;;;6.03;4.32;;;22.40;99.90;;;;;;5064131;28;20177;-79
2021/06/25 09:24:25;;;;;;;4.15;3.55;;;22.00;99.90;;;;;;5065425;28;20204;-79
2021/06/25 09:26:58;;;;;;;4.63;3.67;;;22.10;99.90;;;;;;5064670;28;20208;-79
2021/06/25 09:29:25;;;;;;;5.53;4.38;;;22.00;99.90;;;;;;5046958;28;20552;-79
2021/06/25 09:31:58;;;;;;;5.93;4.70;;;22.50;99.90;;;;;;5063563;28;20224;-79
2021/06/25 09:34:39;;;;;;;7.18;5.28;;;22.70;99.90;;;;;;5047252;28;20193;-79
2021/06/25 09:37:05;;;;;;;6.35;4.40;;;22.80;99.90;;;;;;5045833;28;20259;-78
2021/06/25 09:39:31;;;;;;;6.90;5.45;;;23.20;99.90;;;;;;5047155;28;20221;-79
2021/06/25 09:41:56;;;;;;;6.03;4.75;;;23.30;99.90;;;;;;5049137;28;20220;-79
2021/06/25 09:44:24;;;;;;;5.15;4.40;;;23.50;99.90;;;;;;5050463;28;20181;-79
2021/06/25 09:46:52;;;;;;;6.50;5.32;;;23.80;99.90;;;;;;5050163;28;20208;-79
2021/06/25 09:49:24;;;;;;;6.95;5.28;;;24.00;99.90;;;;;;5068947;28;20961;-78
2021/06/25 09:51:57;;;;;;;5.53;4.68;;;24.10;99.90;;;;;;5067958;28;20189;-78
2021/06/25 09:54:24;;;;;;;5.95;5.35;;;24.40;99.90;;;;;;5050301;28;20562;-79
2021/06/25 09:57:03;;;;;;;6.80;5.50;;;24.30;99.90;;;;;;5067131;28;20213;-80
2021/06/25 10:02:21;;;;;;;6.10;5.13;;;24.40;99.90;;;;;;5067955;28;20182;-79
2021/06/25 10:04:53;;;;;;;6.72;5.85;;;24.60;99.90;;;;;;5067116;28;20998;-79
2021/06/25 10:07:26;;;;;;;10.05;6.03;;;24.20;99.90;;;;;;5069406;28;20244;-77
2021/06/25 10:09:55;;;;;;;5.82;5.22;;;23.80;99.90;;;;;;5052037;28;20189;-79
2021/06/25 10:12:22;;;;;;;6.25;4.30;;;23.80;99.90;;;;;;5051211;28;20554;-81
2021/06/25 10:14:50;;;;;;;5.47;4.70;;;23.90;99.90;;;;;;5050120;28;20182;-79
2021/06/25 10:17:16;;;;;;;6.38;5.78;;;23.70;99.90;;;;;;5067448;28;20198;-79
2021/06/25 10:19:47;;;;;;;7.13;5.47;;;23.60;99.90;;;;;;5068739;28;20178;-79
2021/06/25 10:22:16;;;;;;;12.02;7.07;;;23.20;99.90;;;;;;5068609;28;20256;-78
2021/06/25 10:24:46;;;;;;;8.00;6.80;;;23.10;99.90;;;;;;5050482;28;20188;-80
2021/06/25 10:27:12;;;;;;;22.50;11.73;;;23.10;99.90;;;;;;5067640;28;20255;-79
2021/06/25 10:29:39;;;;;;;9.80;5.85;;;23.10;99.90;;;;;;5067589;28;20616;-79
2021/06/25 10:32:10;;;;;;;9.73;6.90;;;23.00;99.90;;;;;;5067544;28;20651;-79
2021/06/25 10:34:37;;;;;;;13.48;7.70;;;22.90;99.90;;;;;;5068141;28;20177;-78
2021/06/25 10:37:04;;;;;;;7.80;6.53;;;22.90;99.90;;;;;;5049580;28;20721;-79
2021/06/25 10:39:34;;;;;;;8.02;7.13;;;23.10;99.90;;;;;;5068264;28;20177;-79
2021/06/25 10:42:08;;;;;;;8.07;7.00;;;23.20;99.90;;;;;;5049588;28;21202;-79
2021/06/25 10:44:35;;;;;;;7.90;7.00;;;23.60;99.90;;;;;;5049485;28;20234;-78
2021/06/25 10:47:17;;;;;;;7.95;6.18;;;23.90;99.90;;;;;;5067594;28;20216;-79
2021/06/25 10:50:19;;;;;;;12.50;7.40;;;23.90;99.90;;;;;;5067699;28;20270;-79
2021/06/25 10:53:06;;;;;;;12.10;8.15;;;24.00;99.90;;;;;;5039137;28;20195;-79
2021/06/25 10:55:32;;;;;;;8.52;6.70;;;24.20;99.90;;;;;;5049019;28;20205;-79
2021/06/25 10:57:57;;;;;;;31.80;14.85;;;23.90;99.90;;;;;;5067332;28;20231;-79
2021/06/25 11:00:37;;;;;;;8.15;6.32;;;24.00;99.90;;;;;;5066899;28;20272;-79
2021/06/25 11:03:03;;;;;;;8.63;6.68;;;24.20;99.90;;;;;;5067206;28;20176;-79
2021/06/25 11:05:33;;;;;;;7.93;6.53;;;24.20;99.90;;;;;;5067298;28;20580;-79
2021/06/25 11:08:01;;;;;;;9.93;6.63;;;24.30;99.90;;;;;;5067268;28;20178;-79
2021/06/25 11:10:30;;;;;;;8.93;7.55;;;24.20;99.90;;;;;;5049270;28;20267;-79
2021/06/25 11:13:17;;;;;;;8.93;6.82;;;24.60;99.90;;;;;;5065808;28;20181;-80
2021/06/25 11:15:45;;;;;;;7.72;6.57;;;24.70;99.90;;;;;;5066730;28;20581;-79
2021/06/25 11:18:18;;;;;;;8.52;6.63;;;24.70;99.90;;;;;;5067230;28;20185;-79
2021/06/25 11:20:58;;;;;;;7.70;6.65;;;24.70;99.90;;;;;;5066919;28;20556;-79
2021/06/25 11:23:26;;;;;;;8.57;7.32;;;24.20;99.90;;;;;;5067170;28;20169;-80
2021/06/25 11:25:58;;;;;;;8.10;7.25;;;23.80;99.90;;;;;;5067195;28;20197;-79
2021/06/25 11:28:30;;;;;;;8.05;7.25;;;23.80;99.90;;;;;;5066965;28;20177;-81
2021/06/25 11:31:23;;;;;;;9.80;8.57;;;23.60;99.90;;;;;;5066953;28;20220;-80
2021/06/25 11:33:49;;;;;;;9.43;7.80;;;23.50;99.90;;;;;;5066696;28;20589;-80
2021/06/25 11:36:20;;;;;;;8.23;6.97;;;23.10;99.90;;;;;;5051800;28;20213;-78
2021/06/25 11:39:03;;;;;;;8.75;7.28;;;23.20;99.90;;;;;;5071144;28;20181;-76
2021/06/25 11:41:34;;;;;;;8.90;6.75;;;23.60;99.90;;;;;;5070813;28;20173;-78
2021/06/25 11:44:03;;;;;;;7.40;6.47;;;23.70;99.90;;;;;;5070869;28;20212;-75
2021/06/25 11:46:29;;;;;;;7.13;6.10;;;23.50;99.90;;;;;;5070423;28;20205;-77
2021/06/25 11:49:03;;;;;;;9.02;6.95;;;23.60;99.90;;;;;;5070403;28;20227;-79
2021/06/25 11:51:47;;;;;;;10.68;6.95;;;23.80;99.90;;;;;;5071231;28;20288;-76
2021/06/25 11:54:18;;;;;;;6.82;6.13;;;24.10;99.90;;;;;;5070753;28;20208;-78
2021/06/25 11:56:45;;;;;;;7.88;6.85;;;24.20;99.90;;;;;;5068926;28;20208;-78
2021/06/25 11:59:12;;;;;;;7.53;6.50;;;24.10;99.90;;;;;;5069816;28;20276;-79
2021/06/25 12:02:10;;;;;;;7.07;6.38;;;23.90;99.90;;;;;;5070183;28;20193;-76
2021/06/25 12:04:38;;;;;;;6.10;5.40;;;24.10;99.90;;;;;;5024441;28;20360;-75
2021/06/25 12:07:06;;;;;;;5.90;4.57;;;24.30;99.90;;;;;;5051772;28;20256;-78
2021/06/25 12:09:45;;;;;;;5.30;4.80;;;24.60;99.90;;;;;;5051975;28;20182;-76
2021/06/25 12:12:32;;;;;;;6.22;5.15;;;24.50;99.90;;;;;;5051311;28;20230;-76
2021/06/25 12:15:12;;;;;;;6.93;5.13;;;24.60;99.90;;;;;;5069588;28;20189;-79
2021/06/25 12:17:43;;;;;;;5.88;5.25;;;24.70;99.90;;;;;;5069350;28;20232;-77
2021/06/25 12:20:12;;;;;;;6.88;5.43;;;24.60;99.90;;;;;;5051378;28;20186;-78
2021/06/25 12:22:48;;;;;;;6.07;4.95;;;24.80;99.90;;;;;;5069771;28;20872;-79
2021/06/25 12:25:14;;;;;;;5.63;4.75;;;24.80;99.90;;;;;;5069480;28;20184;-78
2021/06/25 12:27:42;;;;;;;5.20;4.25;;;24.90;99.90;;;;;;5066332;28;20181;-78
2021/06/25 12:30:11;;;;;;;4.78;4.38;;;24.60;99.90;;;;;;5049993;28;20189;-78
2021/06/25 12:32:37;;;;;;;6.50;4.85;;;24.60;99.90;;;;;;5065762;28;20242;-78
2021/06/25 12:35:03;;;;;;;7.00;4.70;;;24.50;99.90;;;;;;5046757;28;21189;-77
2021/06/25 12:37:50;;;;;;;6.40;4.55;;;24.70;99.90;;;;;;5046930;28;20209;-77
2021/06/25 12:40:38;;;;;;;6.32;4.55;;;24.80;99.90;;;;;;5065128;28;20228;-75
2021/06/25 12:43:04;;;;;;;5.47;4.43;;;24.80;99.90;;;;;;5064666;28;20886;-75
2021/06/25 12:45:42;;;;;;;5.38;4.45;;;24.80;99.90;;;;;;5064087;28;20767;-76
2021/06/25 12:48:16;;;;;;;5.28;4.55;;;24.60;99.90;;;;;;5047149;28;20182;-78
2021/06/25 12:50:43;;;;;;;6.03;5.10;;;24.40;99.90;;;;;;5065578;28;20173;-77
2021/06/25 12:53:22;;;;;;;4.70;4.18;;;24.20;99.90;;;;;;5065113;28;20247;-77
2021/06/25 12:55:48;;;;;;;5.43;4.20;;;23.80;99.90;;;;;;5065202;28;20201;-77
2021/06/25 12:58:15;;;;;;;5.10;4.60;;;23.70;99.90;;;;;;5064758;28;20185;-75
2021/06/25 13:00:42;;;;;;;4.72;4.18;;;23.60;99.90;;;;;;5065419;28;20278;-75
2021/06/25 13:03:09;;;;;;;5.82;4.55;;;23.50;99.90;;;;;;5047376;28;20192;-75
2021/06/25 13:05:36;;;;;;;5.13;4.60;;;23.60;99.90;;;;;;5065347;28;20712;-78